sensor_id;sensor_type;location;lat;lon;timestamp;temperature;humidity
12384;DHT22;6256;63.808;20.336;2023-07-31T00:02:04;17.00;99.90
12384;DHT22;6256;63.808;20.336;2023-07-31T00:04:29;17.00;99.90
12384;DHT22;6256;63.808;20.336;2023-07-31T00:06:55;17.00;99.90
12384;DHT22;6256;63.808;20.336;2023-07-31T00:09:21;17.10;99.90
12384;DHT22;6256;63.808;20.336;2023-07-31T00:11:46;17.10;99.90
12384;DHT22;6256;63.808;20.336;2023-07-31T00:14:12;17.10;99.90
12384;DHT22;6256;63.808;20.336;2023-07-31T00:16:38;17.10;99.90
12384;DHT22;6256;63.808;20.336;2023-07-31T00:19:04;17.10;99.90
12384;DHT22;6256;63.808;20.336;2023-07-31T00:21:29;17.10;99.90
12384;DHT22;6256;63.808;20.336;2023-07-31T00:23:55;17.00;99.90
12384;DHT22;6256;63.808;20.336;2023-07-31T00:26:20;17.00;99.90
12384;DHT22;6256;63.808;20.336;2023-07-31T00:28:46;17.10;99.90
12384;DHT22;6256;63.808;20.336;2023-07-31T00:31:12;17.20;99.90
12384;DHT22;6256;63.808;20.336;2023-07-31T00:33:38;17.20;99.90
12384;DHT22;6256;63.808;20.336;2023-07-31T00:36:03;17.30;99.90
12384;DHT22;6256;63.808;20.336;2023-07-31T00:38:29;17.30;99.90
12384;DHT22;6256;63.808;20.336;2023-07-31T00:40:55;17.30;99.90
12384;DHT22;6256;63.808;20.336;2023-07-31T00:43:20;17.30;99.90
12384;DHT22;6256;63.808;20.336;2023-07-31T00:45:46;17.30;99.90
12384;DHT22;6256;63.808;20.336;2023-07-31T00:48:12;17.30;99.90
12384;DHT22;6256;63.808;20.336;2023-07-31T00:50:38;17.30;99.90
12384;DHT22;6256;63.808;20.336;2023-07-31T00:53:04;17.20;99.90
12384;DHT22;6256;63.808;20.336;2023-07-31T00:55:30;17.20;99.90
12384;DHT22;6256;63.808;20.336;2023-07-31T00:57:56;17.20;99.90
12384;DHT22;6256;63.808;20.336;2023-07-31T01:00:22;17.20;99.90
12384;DHT22;6256;63.808;20.336;2023-07-31T01:02:49;17.30;99.90
12384;DHT22;6256;63.808;20.336;2023-07-31T01:05:16;17.40;99.90
12384;DHT22;6256;63.808;20.336;2023-07-31T01:07:49;17.40;99.90
12384;DHT22;6256;63.808;20.336;2023-07-31T01:10:23;17.50;99.90
12384;DHT22;6256;63.808;20.336;2023-07-31T01:12:51;17.50;99.90
12384;DHT22;6256;63.808;20.336;2023-07-31T01:15:19;17.50;99.90
12384;DHT22;6256;63.808;20.336;2023-07-31T01:17:45;17.50;99.90
12384;DHT22;6256;63.808;20.336;2023-07-31T01:20:22;17.50;99.90
12384;DHT22;6256;63.808;20.336;2023-07-31T01:29:20;17.60;99.90
12384;DHT22;6256;63.808;20.336;2023-07-31T01:31:26;17.60;99.90
12384;DHT22;6256;63.808;20.336;2023-07-31T01:33:57;17.60;99.90
12384;DHT22;6256;63.808;20.336;2023-07-31T01:36:24;17.60;99.90
12384;DHT22;6256;63.808;20.336;2023-07-31T01:38:50;17.70;99.90
12384;DHT22;6256;63.808;20.336;2023-07-31T01:41:18;17.70;99.90
12384;DHT22;6256;63.808;20.336;2023-07-31T01:43:45;17.70;99.90
12384;DHT22;6256;63.808;20.336;2023-07-31T01:46:11;17.70;99.90
12384;DHT22;6256;63.808;20.336;2023-07-31T01:48:37;17.60;99.90
12384;DHT22;6256;63.808;20.336;2023-07-31T01:51:02;17.60;99.90
12384;DHT22;6256;63.808;20.336;2023-07-31T01:53:32;17.60;99.90
12384;DHT22;6256;63.808;20.336;2023-07-31T01:55:57;17.50;99.90
12384;DHT22;6256;63.808;20.336;2023-07-31T01:58:23;17.40;99.90
12384;DHT22;6256;63.808;20.336;2023-07-31T02:00:49;17.30;99.90
12384;DHT22;6256;63.808;20.336;2023-07-31T02:03:15;17.20;99.90
12384;DHT22;6256;63.808;20.336;2023-07-31T02:05:50;17.10;99.90
12384;DHT22;6256;63.808;20.336;2023-07-31T02:08:16;17.10;99.90
12384;DHT22;6256;63.808;20.336;2023-07-31T02:10:42;17.00;99.90
12384;DHT22;6256;63.808;20.336;2023-07-31T02:13:08;16.90;99.90
12384;DHT22;6256;63.808;20.336;2023-07-31T02:15:34;16.90;99.90
12384;DHT22;6256;63.808;20.336;2023-07-31T02:18:00;16.80;99.90
12384;DHT22;6256;63.808;20.336;2023-07-31T02:20:25;16.80;99.90
12384;DHT22;6256;63.808;20.336;2023-07-31T02:22:51;16.80;99.90
12384;DHT22;6256;63.808;20.336;2023-07-31T02:25:17;16.70;99.90
12384;DHT22;6256;63.808;20.336;2023-07-31T02:27:43;16.70;99.90
12384;DHT22;6256;63.808;20.336;2023-07-31T02:30:09;16.70;99.90
12384;DHT22;6256;63.808;20.336;2023-07-31T02:32:35;16.60;99.90
12384;DHT22;6256;63.808;20.336;2023-07-31T02:35:00;16.60;99.90
12384;DHT22;6256;63.808;20.336;2023-07-31T02:37:26;16.60;99.90
12384;DHT22;6256;63.808;20.336;2023-07-31T02:39:54;16.50;99.90
12384;DHT22;6256;63.808;20.336;2023-07-31T02:42:19;16.50;99.90
12384;DHT22;6256;63.808;20.336;2023-07-31T02:44:45;16.50;99.90
12384;DHT22;6256;63.808;20.336;2023-07-31T02:47:11;16.40;99.90
12384;DHT22;6256;63.808;20.336;2023-07-31T02:49:36;16.50;99.90
12384;DHT22;6256;63.808;20.336;2023-07-31T02:52:02;16.50;99.90
12384;DHT22;6256;63.808;20.336;2023-07-31T02:54:28;16.50;99.90
12384;DHT22;6256;63.808;20.336;2023-07-31T02:56:54;16.50;99.90
12384;DHT22;6256;63.808;20.336;2023-07-31T02:59:20;16.50;99.90
12384;DHT22;6256;63.808;20.336;2023-07-31T03:01:46;16.50;99.90
12384;DHT22;6256;63.808;20.336;2023-07-31T03:04:11;16.50;99.90
12384;DHT22;6256;63.808;20.336;2023-07-31T03:06:37;16.40;99.90
12384;DHT22;6256;63.808;20.336;2023-07-31T03:09:03;16.50;99.90
12384;DHT22;6256;63.808;20.336;2023-07-31T03:11:29;16.50;99.90
12384;DHT22;6256;63.808;20.336;2023-07-31T03:13:54;16.60;99.90
12384;DHT22;6256;63.808;20.336;2023-07-31T03:16:20;16.60;99.90
12384;DHT22;6256;63.808;20.336;2023-07-31T03:18:46;16.60;99.90
12384;DHT22;6256;63.808;20.336;2023-07-31T03:21:12;16.70;99.90
12384;DHT22;6256;63.808;20.336;2023-07-31T03:23:38;16.80;99.90
12384;DHT22;6256;63.808;20.336;2023-07-31T03:26:07;16.80;99.90
12384;DHT22;6256;63.808;20.336;2023-07-31T03:28:32;16.90;99.90
12384;DHT22;6256;63.808;20.336;2023-07-31T03:30:58;16.90;99.90
12384;DHT22;6256;63.808;20.336;2023-07-31T03:33:25;16.80;99.90
12384;DHT22;6256;63.808;20.336;2023-07-31T03:35:51;16.80;99.90
12384;DHT22;6256;63.808;20.336;2023-07-31T03:38:17;16.80;99.90
12384;DHT22;6256;63.808;20.336;2023-07-31T03:40:42;16.80;99.90
12384;DHT22;6256;63.808;20.336;2023-07-31T03:43:08;16.80;99.90
12384;DHT22;6256;63.808;20.336;2023-07-31T03:45:33;16.80;99.90
12384;DHT22;6256;63.808;20.336;2023-07-31T03:47:59;16.80;99.90
12384;DHT22;6256;63.808;20.336;2023-07-31T03:50:25;16.90;99.90
12384;DHT22;6256;63.808;20.336;2023-07-31T03:52:51;16.90;99.90
12384;DHT22;6256;63.808;20.336;2023-07-31T03:55:17;16.90;99.90
12384;DHT22;6256;63.808;20.336;2023-07-31T03:57:43;16.90;99.90
12384;DHT22;6256;63.808;20.336;2023-07-31T04:00:09;17.00;99.90
12384;DHT22;6256;63.808;20.336;2023-07-31T04:02:35;17.00;99.90
12384;DHT22;6256;63.808;20.336;2023-07-31T04:05:01;17.00;99.90
12384;DHT22;6256;63.808;20.336;2023-07-31T04:07:27;17.10;99.90
12384;DHT22;6256;63.808;20.336;2023-07-31T04:09:53;17.10;99.90
12384;DHT22;6256;63.808;20.336;2023-07-31T04:12:18;17.20;99.90
12384;DHT22;6256;63.808;20.336;2023-07-31T04:14:44;17.30;99.90
12384;DHT22;6256;63.808;20.336;2023-07-31T04:17:10;17.20;99.90
12384;DHT22;6256;63.808;20.336;2023-07-31T04:19:35;17.30;99.90
12384;DHT22;6256;63.808;20.336;2023-07-31T04:22:01;17.40;99.90
12384;DHT22;6256;63.808;20.336;2023-07-31T04:24:27;17.50;99.90
12384;DHT22;6256;63.808;20.336;2023-07-31T04:26:53;17.60;99.90
12384;DHT22;6256;63.808;20.336;2023-07-31T04:29:19;17.60;99.90
12384;DHT22;6256;63.808;20.336;2023-07-31T04:31:44;17.70;99.90
12384;DHT22;6256;63.808;20.336;2023-07-31T04:34:10;17.80;99.90
12384;DHT22;6256;63.808;20.336;2023-07-31T04:36:37;17.90;99.90
12384;DHT22;6256;63.808;20.336;2023-07-31T04:39:03;18.00;99.90
12384;DHT22;6256;63.808;20.336;2023-07-31T04:41:29;18.10;99.90
12384;DHT22;6256;63.808;20.336;2023-07-31T04:43:55;18.20;99.90
12384;DHT22;6256;63.808;20.336;2023-07-31T04:46:21;18.30;99.90
12384;DHT22;6256;63.808;20.336;2023-07-31T04:48:46;18.40;99.90
12384;DHT22;6256;63.808;20.336;2023-07-31T04:51:12;18.40;99.90
12384;DHT22;6256;63.808;20.336;2023-07-31T04:53:38;18.50;99.90
12384;DHT22;6256;63.808;20.336;2023-07-31T04:56:04;18.60;99.90
12384;DHT22;6256;63.808;20.336;2023-07-31T04:58:29;18.60;99.90
12384;DHT22;6256;63.808;20.336;2023-07-31T05:00:55;18.80;99.90
12384;DHT22;6256;63.808;20.336;2023-07-31T05:03:21;18.80;99.90
12384;DHT22;6256;63.808;20.336;2023-07-31T05:05:47;18.90;99.90
12384;DHT22;6256;63.808;20.336;2023-07-31T05:08:12;19.00;99.90
12384;DHT22;6256;63.808;20.336;2023-07-31T05:10:38;19.00;99.90
12384;DHT22;6256;63.808;20.336;2023-07-31T05:13:04;19.10;99.90
12384;DHT22;6256;63.808;20.336;2023-07-31T05:15:30;19.20;99.90
12384;DHT22;6256;63.808;20.336;2023-07-31T05:17:56;19.20;99.90
12384;DHT22;6256;63.808;20.336;2023-07-31T05:20:22;19.30;99.90
12384;DHT22;6256;63.808;20.336;2023-07-31T05:22:47;19.40;99.90
12384;DHT22;6256;63.808;20.336;2023-07-31T05:25:13;19.30;99.90
12384;DHT22;6256;63.808;20.336;2023-07-31T05:27:39;19.40;99.90
12384;DHT22;6256;63.808;20.336;2023-07-31T05:30:05;19.50;99.90
12384;DHT22;6256;63.808;20.336;2023-07-31T05:32:31;19.50;99.90
12384;DHT22;6256;63.808;20.336;2023-07-31T05:34:57;19.60;99.90
12384;DHT22;6256;63.808;20.336;2023-07-31T05:37:23;19.70;99.90
12384;DHT22;6256;63.808;20.336;2023-07-31T05:39:48;19.80;99.90
12384;DHT22;6256;63.808;20.336;2023-07-31T05:42:14;19.90;99.90
12384;DHT22;6256;63.808;20.336;2023-07-31T05:44:40;20.00;99.90
12384;DHT22;6256;63.808;20.336;2023-07-31T05:47:05;20.20;99.90
12384;DHT22;6256;63.808;20.336;2023-07-31T05:49:31;20.40;99.90
12384;DHT22;6256;63.808;20.336;2023-07-31T05:51:57;20.50;99.90
12384;DHT22;6256;63.808;20.336;2023-07-31T05:54:23;20.70;99.90
12384;DHT22;6256;63.808;20.336;2023-07-31T05:56:49;20.80;99.90
12384;DHT22;6256;63.808;20.336;2023-07-31T05:59:16;20.80;99.90
12384;DHT22;6256;63.808;20.336;2023-07-31T06:01:42;20.80;99.90
12384;DHT22;6256;63.808;20.336;2023-07-31T06:04:08;20.90;99.90
12384;DHT22;6256;63.808;20.336;2023-07-31T06:06:34;20.90;99.90
12384;DHT22;6256;63.808;20.336;2023-07-31T06:08:59;20.90;99.90
12384;DHT22;6256;63.808;20.336;2023-07-31T06:11:25;21.00;99.90
12384;DHT22;6256;63.808;20.336;2023-07-31T06:13:51;21.10;99.90
12384;DHT22;6256;63.808;20.336;2023-07-31T06:16:17;21.30;99.90
12384;DHT22;6256;63.808;20.336;2023-07-31T06:18:43;21.40;99.90
12384;DHT22;6256;63.808;20.336;2023-07-31T06:21:09;21.40;99.90
12384;DHT22;6256;63.808;20.336;2023-07-31T06:23:35;21.50;99.90
12384;DHT22;6256;63.808;20.336;2023-07-31T06:26:00;21.60;99.90
12384;DHT22;6256;63.808;20.336;2023-07-31T06:28:30;21.80;99.90
12384;DHT22;6256;63.808;20.336;2023-07-31T06:30:56;21.90;99.90
12384;DHT22;6256;63.808;20.336;2023-07-31T06:33:22;21.90;99.90
12384;DHT22;6256;63.808;20.336;2023-07-31T06:35:48;21.80;99.90
12384;DHT22;6256;63.808;20.336;2023-07-31T06:38:13;21.60;99.90
12384;DHT22;6256;63.808;20.336;2023-07-31T06:40:39;21.60;99.90
12384;DHT22;6256;63.808;20.336;2023-07-31T06:43:05;21.50;99.90
12384;DHT22;6256;63.808;20.336;2023-07-31T06:45:36;21.50;99.90
12384;DHT22;6256;63.808;20.336;2023-07-31T06:48:02;21.40;99.90
12384;DHT22;6256;63.808;20.336;2023-07-31T06:50:29;21.40;99.90
12384;DHT22;6256;63.808;20.336;2023-07-31T06:52:55;21.40;99.90
12384;DHT22;6256;63.808;20.336;2023-07-31T06:55:21;21.50;99.90
12384;DHT22;6256;63.808;20.336;2023-07-31T06:57:48;21.70;99.90
12384;DHT22;6256;63.808;20.336;2023-07-31T07:00:15;21.80;99.90
12384;DHT22;6256;63.808;20.336;2023-07-31T07:02:41;22.00;99.90
12384;DHT22;6256;63.808;20.336;2023-07-31T07:05:07;22.10;99.90
12384;DHT22;6256;63.808;20.336;2023-07-31T07:07:34;22.30;99.90
12384;DHT22;6256;63.808;20.336;2023-07-31T07:10:00;22.20;99.90
12384;DHT22;6256;63.808;20.336;2023-07-31T07:12:29;22.10;99.90
12384;DHT22;6256;63.808;20.336;2023-07-31T07:14:55;22.00;99.90
12384;DHT22;6256;63.808;20.336;2023-07-31T07:17:21;21.90;99.90
12384;DHT22;6256;63.808;20.336;2023-07-31T07:19:47;21.90;99.90
12384;DHT22;6256;63.808;20.336;2023-07-31T07:22:13;21.90;99.90
12384;DHT22;6256;63.808;20.336;2023-07-31T07:24:39;22.00;99.90
12384;DHT22;6256;63.808;20.336;2023-07-31T07:27:05;22.00;99.90
12384;DHT22;6256;63.808;20.336;2023-07-31T07:29:31;22.00;99.90
12384;DHT22;6256;63.808;20.336;2023-07-31T07:31:57;22.10;99.90
12384;DHT22;6256;63.808;20.336;2023-07-31T07:34:25;22.20;99.90
12384;DHT22;6256;63.808;20.336;2023-07-31T07:36:50;22.40;99.90
12384;DHT22;6256;63.808;20.336;2023-07-31T07:39:16;22.50;99.90
12384;DHT22;6256;63.808;20.336;2023-07-31T07:41:42;22.70;99.90
12384;DHT22;6256;63.808;20.336;2023-07-31T07:44:08;22.90;99.90
12384;DHT22;6256;63.808;20.336;2023-07-31T07:46:33;23.10;99.90
12384;DHT22;6256;63.808;20.336;2023-07-31T07:48:59;23.00;99.90
12384;DHT22;6256;63.808;20.336;2023-07-31T07:51:25;23.10;99.90
12384;DHT22;6256;63.808;20.336;2023-07-31T07:53:51;23.40;99.90
12384;DHT22;6256;63.808;20.336;2023-07-31T07:56:16;23.40;99.90
12384;DHT22;6256;63.808;20.336;2023-07-31T07:58:42;23.40;99.90
12384;DHT22;6256;63.808;20.336;2023-07-31T08:01:08;23.30;99.90
12384;DHT22;6256;63.808;20.336;2023-07-31T08:03:33;23.10;99.90
12384;DHT22;6256;63.808;20.336;2023-07-31T08:06:00;23.00;99.90
12384;DHT22;6256;63.808;20.336;2023-07-31T08:08:26;22.70;99.90
12384;DHT22;6256;63.808;20.336;2023-07-31T08:10:52;22.60;99.90
12384;DHT22;6256;63.808;20.336;2023-07-31T08:13:17;22.50;99.90
12384;DHT22;6256;63.808;20.336;2023-07-31T08:15:43;22.50;99.90
12384;DHT22;6256;63.808;20.336;2023-07-31T08:18:10;22.50;99.90
12384;DHT22;6256;63.808;20.336;2023-07-31T08:20:37;22.50;99.90
12384;DHT22;6256;63.808;20.336;2023-07-31T08:23:03;22.40;99.90
12384;DHT22;6256;63.808;20.336;2023-07-31T08:25:29;22.50;99.90
12384;DHT22;6256;63.808;20.336;2023-07-31T08:27:55;22.60;99.90
12384;DHT22;6256;63.808;20.336;2023-07-31T08:30:21;22.80;99.90
12384;DHT22;6256;63.808;20.336;2023-07-31T08:32:47;23.00;99.90
12384;DHT22;6256;63.808;20.336;2023-07-31T08:35:13;23.00;99.90
12384;DHT22;6256;63.808;20.336;2023-07-31T08:37:39;23.00;99.90
12384;DHT22;6256;63.808;20.336;2023-07-31T08:40:05;23.10;99.90
12384;DHT22;6256;63.808;20.336;2023-07-31T08:42:31;23.20;99.90
12384;DHT22;6256;63.808;20.336;2023-07-31T08:44:59;23.30;99.90
12384;DHT22;6256;63.808;20.336;2023-07-31T08:47:26;23.50;99.90
12384;DHT22;6256;63.808;20.336;2023-07-31T08:49:53;23.60;99.90
12384;DHT22;6256;63.808;20.336;2023-07-31T08:52:20;23.70;99.90
12384;DHT22;6256;63.808;20.336;2023-07-31T08:54:45;23.90;99.90
12384;DHT22;6256;63.808;20.336;2023-07-31T08:57:12;24.00;99.90
12384;DHT22;6256;63.808;20.336;2023-07-31T08:59:39;24.10;99.90
12384;DHT22;6256;63.808;20.336;2023-07-31T09:02:07;24.30;99.90
12384;DHT22;6256;63.808;20.336;2023-07-31T09:04:34;24.50;99.90
12384;DHT22;6256;63.808;20.336;2023-07-31T09:07:01;24.70;99.90
12384;DHT22;6256;63.808;20.336;2023-07-31T09:09:30;24.90;99.90
12384;DHT22;6256;63.808;20.336;2023-07-31T09:11:57;24.90;99.90
12384;DHT22;6256;63.808;20.336;2023-07-31T09:14:25;25.00;99.90
12384;DHT22;6256;63.808;20.336;2023-07-31T09:16:55;24.80;99.90
12384;DHT22;6256;63.808;20.336;2023-07-31T09:19:32;24.70;99.90
12384;DHT22;6256;63.808;20.336;2023-07-31T09:21:59;24.70;99.90
12384;DHT22;6256;63.808;20.336;2023-07-31T09:24:33;24.60;99.90
12384;DHT22;6256;63.808;20.336;2023-07-31T09:27:00;24.50;99.90
12384;DHT22;6256;63.808;20.336;2023-07-31T09:29:27;24.40;99.90
12384;DHT22;6256;63.808;20.336;2023-07-31T09:31:54;24.40;99.90
12384;DHT22;6256;63.808;20.336;2023-07-31T09:34:20;24.50;99.90
12384;DHT22;6256;63.808;20.336;2023-07-31T09:36:53;24.60;99.90
12384;DHT22;6256;63.808;20.336;2023-07-31T09:39:19;24.60;99.90
12384;DHT22;6256;63.808;20.336;2023-07-31T09:41:54;24.70;99.90
12384;DHT22;6256;63.808;20.336;2023-07-31T09:44:20;24.90;99.90
12384;DHT22;6256;63.808;20.336;2023-07-31T09:46:46;24.80;99.90
12384;DHT22;6256;63.808;20.336;2023-07-31T09:49:13;24.90;99.90
12384;DHT22;6256;63.808;20.336;2023-07-31T09:51:41;24.80;99.90
12384;DHT22;6256;63.808;20.336;2023-07-31T09:54:16;24.90;99.90
12384;DHT22;6256;63.808;20.336;2023-07-31T09:56:44;24.90;99.90
12384;DHT22;6256;63.808;20.336;2023-07-31T09:59:15;25.00;99.90
12384;DHT22;6256;63.808;20.336;2023-07-31T10:01:42;25.20;99.90
12384;DHT22;6256;63.808;20.336;2023-07-31T10:04:10;25.30;99.90
12384;DHT22;6256;63.808;20.336;2023-07-31T10:06:37;25.30;99.90
12384;DHT22;6256;63.808;20.336;2023-07-31T10:09:06;25.50;99.90
12384;DHT22;6256;63.808;20.336;2023-07-31T10:11:42;25.60;99.90
12384;DHT22;6256;63.808;20.336;2023-07-31T10:14:09;25.90;99.90
12384;DHT22;6256;63.808;20.336;2023-07-31T10:16:38;26.10;99.90
12384;DHT22;6256;63.808;20.336;2023-07-31T10:19:06;26.00;99.90
12384;DHT22;6256;63.808;20.336;2023-07-31T10:21:34;25.90;99.90
12384;DHT22;6256;63.808;20.336;2023-07-31T10:24:03;25.70;99.90
12384;DHT22;6256;63.808;20.336;2023-07-31T10:26:31;25.70;99.90
12384;DHT22;6256;63.808;20.336;2023-07-31T10:28:58;25.80;99.90
12384;DHT22;6256;63.808;20.336;2023-07-31T10:31:24;26.20;99.90
12384;DHT22;6256;63.808;20.336;2023-07-31T10:33:51;26.20;99.90
12384;DHT22;6256;63.808;20.336;2023-07-31T10:36:19;26.00;99.90
12384;DHT22;6256;63.808;20.336;2023-07-31T10:38:48;25.80;99.90
12384;DHT22;6256;63.808;20.336;2023-07-31T10:41:14;25.90;99.90
12384;DHT22;6256;63.808;20.336;2023-07-31T10:43:40;26.00;99.90
12384;DHT22;6256;63.808;20.336;2023-07-31T10:46:07;26.00;99.90
12384;DHT22;6256;63.808;20.336;2023-07-31T10:48:37;26.30;99.90
12384;DHT22;6256;63.808;20.336;2023-07-31T10:51:07;26.40;99.90
12384;DHT22;6256;63.808;20.336;2023-07-31T10:53:34;26.10;99.90
12384;DHT22;6256;63.808;20.336;2023-07-31T10:56:05;26.00;99.90
12384;DHT22;6256;63.808;20.336;2023-07-31T10:58:32;25.80;99.90
12384;DHT22;6256;63.808;20.336;2023-07-31T11:01:02;25.70;99.90
12384;DHT22;6256;63.808;20.336;2023-07-31T11:04:01;26.00;99.90
12384;DHT22;6256;63.808;20.336;2023-07-31T11:06:36;26.10;99.90
12384;DHT22;6256;63.808;20.336;2023-07-31T11:09:02;26.00;99.90
12384;DHT22;6256;63.808;20.336;2023-07-31T11:11:27;26.10;99.90
12384;DHT22;6256;63.808;20.336;2023-07-31T11:13:53;26.70;99.90
12384;DHT22;6256;63.808;20.336;2023-07-31T11:16:21;27.70;97.90
12384;DHT22;6256;63.808;20.336;2023-07-31T11:18:48;27.90;96.60
12384;DHT22;6256;63.808;20.336;2023-07-31T11:21:19;27.70;95.60
12384;DHT22;6256;63.808;20.336;2023-07-31T11:23:54;28.30;96.30
12384;DHT22;6256;63.808;20.336;2023-07-31T11:26:21;28.80;93.70
12384;DHT22;6256;63.808;20.336;2023-07-31T11:28:49;29.10;93.30
12384;DHT22;6256;63.808;20.336;2023-07-31T11:31:15;29.50;93.00
12384;DHT22;6256;63.808;20.336;2023-07-31T11:33:41;29.50;91.10
12384;DHT22;6256;63.808;20.336;2023-07-31T11:36:17;29.80;92.00
12384;DHT22;6256;63.808;20.336;2023-07-31T11:38:43;30.00;91.70
12384;DHT22;6256;63.808;20.336;2023-07-31T11:41:09;30.20;90.90
12384;DHT22;6256;63.808;20.336;2023-07-31T11:43:34;30.30;90.40
12384;DHT22;6256;63.808;20.336;2023-07-31T11:46:02;30.50;90.80
12384;DHT22;6256;63.808;20.336;2023-07-31T11:48:35;30.40;89.60
12384;DHT22;6256;63.808;20.336;2023-07-31T11:51:08;30.50;90.80
12384;DHT22;6256;63.808;20.336;2023-07-31T11:56:10;30.90;87.10
12384;DHT22;6256;63.808;20.336;2023-07-31T11:58:38;31.00;88.10
12384;DHT22;6256;63.808;20.336;2023-07-31T12:01:04;31.30;85.90
12384;DHT22;6256;63.808;20.336;2023-07-31T12:03:31;31.20;88.00
12384;DHT22;6256;63.808;20.336;2023-07-31T12:05:58;31.60;88.50
12384;DHT22;6256;63.808;20.336;2023-07-31T12:08:24;31.80;86.30
12384;DHT22;6256;63.808;20.336;2023-07-31T12:10:51;32.00;86.60
12384;DHT22;6256;63.808;20.336;2023-07-31T12:13:25;32.10;85.80
12384;DHT22;6256;63.808;20.336;2023-07-31T12:15:56;32.00;86.60
12384;DHT22;6256;63.808;20.336;2023-07-31T12:18:27;32.00;86.10
12384;DHT22;6256;63.808;20.336;2023-07-31T12:20:55;32.30;85.80
12384;DHT22;6256;63.808;20.336;2023-07-31T12:23:26;32.40;84.80
12384;DHT22;6256;63.808;20.336;2023-07-31T12:26:15;32.50;83.10
12384;DHT22;6256;63.808;20.336;2023-07-31T12:31:12;32.40;83.90
12384;DHT22;6256;63.808;20.336;2023-07-31T12:33:39;32.60;84.20
12384;DHT22;6256;63.808;20.336;2023-07-31T12:36:25;32.70;82.20
12384;DHT22;6256;63.808;20.336;2023-07-31T12:38:51;32.50;81.70
12384;DHT22;6256;63.808;20.336;2023-07-31T12:41:17;32.50;81.50
12384;DHT22;6256;63.808;20.336;2023-07-31T12:43:44;32.60;81.50
12384;DHT22;6256;63.808;20.336;2023-07-31T12:46:10;32.80;81.60
12384;DHT22;6256;63.808;20.336;2023-07-31T12:48:37;33.00;80.30
12384;DHT22;6256;63.808;20.336;2023-07-31T12:51:04;33.40;78.50
12384;DHT22;6256;63.808;20.336;2023-07-31T12:53:30;33.50;79.40
12384;DHT22;6256;63.808;20.336;2023-07-31T12:55:56;33.60;77.00
12384;DHT22;6256;63.808;20.336;2023-07-31T12:58:22;33.40;76.90
12384;DHT22;6256;63.808;20.336;2023-07-31T13:00:48;33.50;77.00
12384;DHT22;6256;63.808;20.336;2023-07-31T13:03:14;33.50;75.40
12384;DHT22;6256;63.808;20.336;2023-07-31T13:05:40;33.70;75.40
12384;DHT22;6256;63.808;20.336;2023-07-31T13:08:05;33.80;74.70
12384;DHT22;6256;63.808;20.336;2023-07-31T13:10:31;33.90;74.30
12384;DHT22;6256;63.808;20.336;2023-07-31T13:12:57;34.00;73.50
12384;DHT22;6256;63.808;20.336;2023-07-31T13:15:22;34.10;72.10
12384;DHT22;6256;63.808;20.336;2023-07-31T13:17:48;34.40;73.00
12384;DHT22;6256;63.808;20.336;2023-07-31T13:20:14;34.50;72.80
12384;DHT22;6256;63.808;20.336;2023-07-31T13:22:40;34.60;72.10
12384;DHT22;6256;63.808;20.336;2023-07-31T13:25:06;34.90;71.40
12384;DHT22;6256;63.808;20.336;2023-07-31T13:27:32;35.00;71.40
12384;DHT22;6256;63.808;20.336;2023-07-31T13:29:58;34.80;70.20
12384;DHT22;6256;63.808;20.336;2023-07-31T13:32:24;34.80;69.90
12384;DHT22;6256;63.808;20.336;2023-07-31T13:34:50;35.10;69.80
12384;DHT22;6256;63.808;20.336;2023-07-31T13:37:16;35.00;69.90
12384;DHT22;6256;63.808;20.336;2023-07-31T13:39:42;35.00;70.00
12384;DHT22;6256;63.808;20.336;2023-07-31T13:42:08;35.00;68.60
12384;DHT22;6256;63.808;20.336;2023-07-31T13:44:38;35.20;69.00
12384;DHT22;6256;63.808;20.336;2023-07-31T13:47:04;35.30;68.20
12384;DHT22;6256;63.808;20.336;2023-07-31T13:49:33;35.20;70.10
12384;DHT22;6256;63.808;20.336;2023-07-31T13:52:00;35.00;68.50
12384;DHT22;6256;63.808;20.336;2023-07-31T13:54:25;35.10;68.50
12384;DHT22;6256;63.808;20.336;2023-07-31T13:56:52;35.00;67.00
12384;DHT22;6256;63.808;20.336;2023-07-31T13:59:18;35.30;67.00
12384;DHT22;6256;63.808;20.336;2023-07-31T14:01:44;35.30;67.50
12384;DHT22;6256;63.808;20.336;2023-07-31T14:04:10;35.20;65.80
12384;DHT22;6256;63.808;20.336;2023-07-31T14:06:36;35.30;66.30
12384;DHT22;6256;63.808;20.336;2023-07-31T14:09:02;35.20;64.50
12384;DHT22;6256;63.808;20.336;2023-07-31T14:11:31;35.20;64.90
12384;DHT22;6256;63.808;20.336;2023-07-31T14:13:57;35.70;64.40
12384;DHT22;6256;63.808;20.336;2023-07-31T14:16:23;35.80;63.50
12384;DHT22;6256;63.808;20.336;2023-07-31T14:18:49;35.70;65.00
12384;DHT22;6256;63.808;20.336;2023-07-31T14:21:15;35.50;64.40
12384;DHT22;6256;63.808;20.336;2023-07-31T14:23:41;35.40;64.40
12384;DHT22;6256;63.808;20.336;2023-07-31T14:26:08;35.60;64.10
12384;DHT22;6256;63.808;20.336;2023-07-31T14:28:34;35.90;62.80
12384;DHT22;6256;63.808;20.336;2023-07-31T14:30:59;36.30;63.00
12384;DHT22;6256;63.808;20.336;2023-07-31T14:33:25;35.60;61.70
12384;DHT22;6256;63.808;20.336;2023-07-31T14:35:51;35.70;61.60
12384;DHT22;6256;63.808;20.336;2023-07-31T14:38:17;35.90;63.40
12384;DHT22;6256;63.808;20.336;2023-07-31T14:40:43;36.40;63.60
12384;DHT22;6256;63.808;20.336;2023-07-31T14:43:08;36.40;60.30
12384;DHT22;6256;63.808;20.336;2023-07-31T14:45:34;35.30;62.50
12384;DHT22;6256;63.808;20.336;2023-07-31T14:48:00;34.80;62.00
12384;DHT22;6256;63.808;20.336;2023-07-31T14:50:26;35.20;62.50
12384;DHT22;6256;63.808;20.336;2023-07-31T14:52:51;35.60;61.70
12384;DHT22;6256;63.808;20.336;2023-07-31T14:55:18;36.00;62.30
12384;DHT22;6256;63.808;20.336;2023-07-31T14:57:44;36.30;60.90
12384;DHT22;6256;63.808;20.336;2023-07-31T15:00:10;36.40;60.70
12384;DHT22;6256;63.808;20.336;2023-07-31T15:02:39;36.40;61.60
12384;DHT22;6256;63.808;20.336;2023-07-31T15:05:05;35.90;61.10
12384;DHT22;6256;63.808;20.336;2023-07-31T15:07:32;36.50;62.80
12384;DHT22;6256;63.808;20.336;2023-07-31T15:09:58;37.20;60.30
12384;DHT22;6256;63.808;20.336;2023-07-31T15:12:25;37.50;59.60
12384;DHT22;6256;63.808;20.336;2023-07-31T15:14:51;36.80;60.30
12384;DHT22;6256;63.808;20.336;2023-07-31T15:17:17;36.40;61.50
12384;DHT22;6256;63.808;20.336;2023-07-31T15:19:43;36.50;60.90
12384;DHT22;6256;63.808;20.336;2023-07-31T15:22:09;35.90;62.40
12384;DHT22;6256;63.808;20.336;2023-07-31T15:24:35;36.00;62.30
12384;DHT22;6256;63.808;20.336;2023-07-31T15:27:00;36.30;62.50
12384;DHT22;6256;63.808;20.336;2023-07-31T15:29:29;36.90;61.80
12384;DHT22;6256;63.808;20.336;2023-07-31T15:31:55;37.50;62.00
12384;DHT22;6256;63.808;20.336;2023-07-31T15:34:21;37.80;60.40
12384;DHT22;6256;63.808;20.336;2023-07-31T15:36:47;37.90;59.30
12384;DHT22;6256;63.808;20.336;2023-07-31T15:39:12;37.30;60.00